createdAt,value
2023-05-21T00:00:17.189Z,8.80
2023-05-21T00:02:43.462Z,8.73
2023-05-21T00:05:14.394Z,8.30
2023-05-21T00:07:41.596Z,8.30
2023-05-21T00:10:08.523Z,7.80
2023-05-21T00:12:34.885Z,8.13
2023-05-21T00:15:01.290Z,7.80
2023-05-21T00:17:27.747Z,8.10
2023-05-21T00:19:54.072Z,7.77
2023-05-21T00:22:20.258Z,8.17
2023-05-21T00:24:47.100Z,7.23
2023-05-21T00:27:13.504Z,7.37
2023-05-21T00:29:40.649Z,7.03
2023-05-21T00:32:08.010Z,7.73
2023-05-21T00:34:34.230Z,7.40
2023-05-21T00:37:01.945Z,7.23
2023-05-21T00:39:28.192Z,7.20
2023-05-21T00:41:56.122Z,7.23
2023-05-21T00:44:23.089Z,7.10
2023-05-21T00:46:52.777Z,7.23
2023-05-21T00:49:19.257Z,6.80
2023-05-21T00:51:45.823Z,6.97
2023-05-21T00:54:12.374Z,7.57
2023-05-21T00:56:38.640Z,7.63
2023-05-21T00:59:05.635Z,8.07
2023-05-21T01:01:36.042Z,8.23
2023-05-21T01:04:02.836Z,8.13
2023-05-21T01:06:29.330Z,8.33
2023-05-21T01:08:55.714Z,8.13
2023-05-21T01:11:32.292Z,8.67
2023-05-21T01:13:58.633Z,9.70
2023-05-21T01:16:25.569Z,8.67
2023-05-21T01:18:53.134Z,9.17
2023-05-21T01:21:20.858Z,8.43
2023-05-21T01:27:29.700Z,7.53
2023-05-21T01:29:56.271Z,7.47
2023-05-21T01:32:26.952Z,7.40
2023-05-21T01:34:57.823Z,7.60
2023-05-21T01:37:29.285Z,7.37
2023-05-21T01:39:57.065Z,7.90
2023-05-21T01:42:23.916Z,7.23
2023-05-21T01:44:51.875Z,7.57
2023-05-21T01:47:18.735Z,7.53
2023-05-21T01:49:45.188Z,7.60
2023-05-21T01:52:12.232Z,8.37
2023-05-21T01:54:38.503Z,8.23
2023-05-21T01:57:05.934Z,8.20
2023-05-21T01:59:32.394Z,8.20
2023-05-21T02:01:59.374Z,8.30
2023-05-21T02:04:25.725Z,7.20
2023-05-21T02:06:54.041Z,7.63
2023-05-21T02:09:20.245Z,8.50
2023-05-21T02:11:46.442Z,7.80
2023-05-21T02:14:13.682Z,8.13
2023-05-21T02:16:40.982Z,9.00
2023-05-21T02:19:09.672Z,8.57
2023-05-21T02:21:36.052Z,8.60
2023-05-21T02:24:02.360Z,8.97
2023-05-21T02:26:28.787Z,8.33
2023-05-21T02:28:55.043Z,8.47
2023-05-21T02:31:21.232Z,9.20
2023-05-21T02:33:47.569Z,8.90
2023-05-21T02:36:14.764Z,8.80
2023-05-21T02:38:42.713Z,8.93
2023-05-21T02:41:10.399Z,8.53
2023-05-21T02:43:36.761Z,9.07
2023-05-21T02:46:04.165Z,9.43
2023-05-21T02:48:30.476Z,9.63
2023-05-21T02:50:56.890Z,8.90
2023-05-21T02:53:23.992Z,8.77
2023-05-21T02:55:50.445Z,10.00
2023-05-21T02:58:16.702Z,10.03
2023-05-21T03:00:42.957Z,9.73
2023-05-21T03:03:09.562Z,9.43
2023-05-21T03:05:36.083Z,9.87
2023-05-21T03:08:02.849Z,10.23
2023-05-21T03:10:29.957Z,9.70
2023-05-21T03:12:56.298Z,9.63
2023-05-21T03:15:23.194Z,9.17
2023-05-21T03:17:49.625Z,9.17
2023-05-21T03:20:17.970Z,9.30
2023-05-21T03:22:44.708Z,8.70
2023-05-21T03:25:11.192Z,9.20
2023-05-21T03:27:38.194Z,8.93
2023-05-21T03:30:06.824Z,8.23
2023-05-21T03:32:36.949Z,8.73
2023-05-21T03:35:03.896Z,8.77
2023-05-21T03:37:30.291Z,9.00
2023-05-21T03:39:56.495Z,8.43
2023-05-21T03:42:22.783Z,8.37
2023-05-21T03:44:49.791Z,8.40
2023-05-21T03:47:16.250Z,8.90
2023-05-21T03:49:42.507Z,8.47
2023-05-21T03:52:08.895Z,8.77
2023-05-21T03:54:35.437Z,8.53
2023-05-21T03:57:01.678Z,8.93
2023-05-21T03:59:27.918Z,8.67
2023-05-21T04:01:54.783Z,8.03
2023-05-21T04:04:21.056Z,8.67
2023-05-21T04:06:47.507Z,8.37
2023-05-21T04:09:13.714Z,8.43
2023-05-21T04:11:39.927Z,8.33
2023-05-21T04:14:06.495Z,9.23
2023-05-21T04:16:33.986Z,8.83
2023-05-21T04:19:01.082Z,8.20
2023-05-21T04:21:27.346Z,8.27
2023-05-21T04:23:53.635Z,8.50
2023-05-21T04:26:19.976Z,8.10
2023-05-21T04:28:47.114Z,8.20
2023-05-21T04:31:13.488Z,8.03
2023-05-21T04:33:41.334Z,8.47
2023-05-21T04:36:09.846Z,7.70
2023-05-21T04:38:36.607Z,8.50
2023-05-21T04:41:03.377Z,8.30
2023-05-21T04:43:31.229Z,7.93
2023-05-21T04:45:57.525Z,7.73
2023-05-21T04:48:25.103Z,7.07
2023-05-21T04:50:52.737Z,7.73
2023-05-21T04:53:19.922Z,7.77
2023-05-21T04:55:46.305Z,8.07
2023-05-21T04:58:12.896Z,7.97
2023-05-21T05:00:41.466Z,8.17
2023-05-21T05:03:08.098Z,9.10
2023-05-21T05:05:34.815Z,8.73
2023-05-21T05:08:01.740Z,8.57
2023-05-21T05:10:28.601Z,9.33
2023-05-21T05:12:54.863Z,8.23
2023-05-21T05:15:21.263Z,8.93
2023-05-21T05:17:49.702Z,9.43
2023-05-21T05:20:16.053Z,9.27
2023-05-21T05:22:42.349Z,8.57
2023-05-21T05:25:08.904Z,8.47
2023-05-21T05:27:37.776Z,9.20
2023-05-21T05:30:06.013Z,8.93
2023-05-21T05:32:32.419Z,8.13
2023-05-21T05:35:00.433Z,8.60
2023-05-21T05:37:28.566Z,8.33
2023-05-21T05:39:55.184Z,8.87
2023-05-21T05:42:21.530Z,8.60
2023-05-21T05:44:48.452Z,8.60
2023-05-21T05:47:14.802Z,8.73
2023-05-21T05:49:41.051Z,9.13
2023-05-21T05:52:07.454Z,9.13
2023-05-21T05:54:33.761Z,8.60
2023-05-21T05:57:00.120Z,9.27
2023-05-21T05:59:26.444Z,9.93
2023-05-21T06:01:53.335Z,10.03
2023-05-21T06:04:19.774Z,9.90
2023-05-21T06:06:46.622Z,9.13
2023-05-21T06:09:13.260Z,9.20
2023-05-21T06:11:39.508Z,9.30
2023-05-21T06:14:05.741Z,9.33
2023-05-21T06:16:33.036Z,9.40
2023-05-21T06:19:00.044Z,9.73
2023-05-21T06:21:26.339Z,9.67
2023-05-21T06:23:52.560Z,10.33
2023-05-21T06:26:19.087Z,9.03
2023-05-21T06:28:45.394Z,9.70
2023-05-21T06:31:13.175Z,9.07
2023-05-21T06:33:39.811Z,10.10
2023-05-21T06:36:06.919Z,9.20
2023-05-21T06:38:33.175Z,9.03
2023-05-21T06:40:59.588Z,9.43
2023-05-21T06:43:25.899Z,9.00
2023-05-21T06:45:52.347Z,9.43
2023-05-21T06:48:18.700Z,9.50
2023-05-21T06:50:45.046Z,10.40
2023-05-21T06:53:15.472Z,9.23
2023-05-21T06:55:43.628Z,9.67
2023-05-21T06:58:09.926Z,9.83
2023-05-21T07:00:36.329Z,9.27
2023-05-21T07:03:02.686Z,8.77
2023-05-21T07:05:28.999Z,8.97
2023-05-21T07:07:55.261Z,9.63
2023-05-21T07:10:22.262Z,8.60
2023-05-21T07:12:48.579Z,9.30
2023-05-21T07:15:14.847Z,9.10
2023-05-21T07:17:41.413Z,8.80
2023-05-21T07:20:09.274Z,8.80
2023-05-21T07:22:38.004Z,9.00
2023-05-21T07:25:05.165Z,8.80
2023-05-21T07:27:32.054Z,8.70
2023-05-21T07:29:58.312Z,8.63
2023-05-21T07:32:26.032Z,8.97
2023-05-21T07:34:54.357Z,9.63
2023-05-21T07:37:20.920Z,8.67
2023-05-21T07:39:47.256Z,8.87
2023-05-21T07:42:13.558Z,8.33
2023-05-21T07:44:40.500Z,8.80
2023-05-21T07:47:06.783Z,8.13
2023-05-21T07:49:33.064Z,8.27
2023-05-21T07:51:59.422Z,9.10
2023-05-21T07:54:25.748Z,8.27
2023-05-21T07:56:52.112Z,8.83
2023-05-21T07:59:18.441Z,8.93
2023-05-21T08:01:45.529Z,9.53
2023-05-21T08:04:12.090Z,8.80
2023-05-21T08:06:38.361Z,9.13
2023-05-21T08:09:06.005Z,9.27
2023-05-21T08:11:32.359Z,9.10
2023-05-21T08:13:58.662Z,8.83
2023-05-21T08:16:24.958Z,9.13
2023-05-21T08:18:52.037Z,9.20
2023-05-21T08:21:19.097Z,9.37
2023-05-21T08:23:45.341Z,10.40
2023-05-21T08:26:11.935Z,9.30
2023-05-21T08:28:38.734Z,9.93
2023-05-21T08:31:05.183Z,9.40
2023-05-21T08:33:31.532Z,8.60
2023-05-21T08:35:58.775Z,9.77
2023-05-21T08:38:26.652Z,9.23
2023-05-21T08:40:54.808Z,9.30
2023-05-21T08:43:21.530Z,9.97
2023-05-21T08:45:53.782Z,10.20
2023-05-21T08:48:22.519Z,9.83
2023-05-21T08:50:49.139Z,9.70
2023-05-21T08:53:27.175Z,8.50
2023-05-21T08:55:56.396Z,8.93
2023-05-21T08:58:22.790Z,9.90
2023-05-21T09:00:49.278Z,8.97
2023-05-21T09:03:15.999Z,9.23
2023-05-21T09:05:43.336Z,10.10
2023-05-21T09:08:14.549Z,9.93
2023-05-21T09:10:47.263Z,9.13
2023-05-21T09:13:14.008Z,10.03
2023-05-21T09:15:41.625Z,9.77
2023-05-21T09:18:08.057Z,10.17
2023-05-21T09:20:34.919Z,10.80
2023-05-21T09:23:03.357Z,10.07
2023-05-21T09:25:29.791Z,10.50
2023-05-21T09:27:56.839Z,9.67
2023-05-21T09:30:34.120Z,10.63
2023-05-21T09:33:02.628Z,10.80
2023-05-21T09:35:29.174Z,11.17
2023-05-21T09:37:56.598Z,10.13
2023-05-21T09:40:23.929Z,10.60
2023-05-21T09:42:51.964Z,10.23
2023-05-21T09:45:19.260Z,10.60
2023-05-21T09:47:46.171Z,10.40
2023-05-21T09:50:12.967Z,10.73
2023-05-21T09:52:41.875Z,10.77
2023-05-21T09:55:11.293Z,10.53
2023-05-21T09:57:40.988Z,10.33
2023-05-21T10:00:09.615Z,10.17
2023-05-21T10:02:37.753Z,10.93
2023-05-21T10:05:05.402Z,10.00
2023-05-21T10:07:32.095Z,10.60
2023-05-21T10:09:59.568Z,11.37
2023-05-21T10:12:28.082Z,11.13
2023-05-21T10:15:00.393Z,10.37
2023-05-21T10:17:27.677Z,10.53
2023-05-21T10:19:55.594Z,10.87
2023-05-21T10:22:22.503Z,11.57
2023-05-21T10:24:49.312Z,10.73
2023-05-21T10:27:16.644Z,11.37
2023-05-21T10:29:43.892Z,10.70
2023-05-21T10:32:11.781Z,10.60
2023-05-21T10:34:38.120Z,9.73
2023-05-21T10:37:07.886Z,11.57
2023-05-21T10:39:34.555Z,10.90
2023-05-21T10:42:09.230Z,10.83
2023-05-21T10:44:42.285Z,11.27
2023-05-21T10:47:28.504Z,11.23
2023-05-21T10:50:08.928Z,11.33
2023-05-21T10:52:50.677Z,11.50
2023-05-21T10:55:32.937Z,10.43
2023-05-21T10:58:15.657Z,11.10
2023-05-21T11:00:42.603Z,10.77
2023-05-21T11:03:10.698Z,11.37
2023-05-21T11:05:41.244Z,11.60
2023-05-21T11:08:22.081Z,12.17
2023-05-21T11:10:52.755Z,11.07
2023-05-21T11:13:20.873Z,11.57
2023-05-21T11:16:07.214Z,11.60
2023-05-21T11:19:01.097Z,11.83
2023-05-21T11:21:31.300Z,11.60
2023-05-21T11:24:10.147Z,11.53
2023-05-21T11:27:05.066Z,10.97
2023-05-21T11:29:43.501Z,13.00
2023-05-21T18:41:05.439Z,18.57
2023-05-21T18:43:31.791Z,18.90
2023-05-21T18:45:58.115Z,18.70
2023-05-21T18:48:24.924Z,19.50
2023-05-21T18:50:52.143Z,20.20
2023-05-21T18:53:18.738Z,19.93
2023-05-21T18:55:44.954Z,23.10
2023-05-21T18:58:12.086Z,22.73
2023-05-21T19:00:39.022Z,22.17
2023-05-21T19:03:05.382Z,23.53
2023-05-21T19:05:31.710Z,21.83
2023-05-21T19:07:59.502Z,22.10
2023-05-21T19:10:25.863Z,22.90
2023-05-21T19:12:52.467Z,22.87
2023-05-21T19:15:19.544Z,24.00
2023-05-21T19:17:46.035Z,23.57
2023-05-21T19:20:22.453Z,24.40
2023-05-21T19:22:48.743Z,22.57
2023-05-21T19:25:15.347Z,22.23
2023-05-21T19:27:41.688Z,22.63
2023-05-21T19:30:10.068Z,22.30
2023-05-21T19:32:36.941Z,22.37
2023-05-21T19:35:04.835Z,22.23
2023-05-21T19:37:31.302Z,20.97
2023-05-21T19:39:57.636Z,20.33
2023-05-21T19:42:23.937Z,22.57
2023-05-21T19:44:50.193Z,24.13
2023-05-21T19:47:16.701Z,23.63
2023-05-21T19:49:43.694Z,25.10
2023-05-21T19:52:11.311Z,26.00
2023-05-21T19:54:37.625Z,26.73
2023-05-21T19:57:04.401Z,26.90
2023-05-21T19:59:30.709Z,27.37
2023-05-21T20:01:57.038Z,27.90
2023-05-21T20:04:23.405Z,27.23
2023-05-21T20:06:51.202Z,27.60
2023-05-21T20:09:17.432Z,26.77
2023-05-21T20:11:43.998Z,27.60
2023-05-21T20:14:10.304Z,27.10
2023-05-21T20:16:36.818Z,28.00
2023-05-21T20:19:03.192Z,27.70
2023-05-21T20:21:30.734Z,27.30
2023-05-21T20:23:57.598Z,26.97
2023-05-21T20:26:25.406Z,28.27
2023-05-21T20:28:51.602Z,28.47
2023-05-21T20:31:18.078Z,28.43
2023-05-21T20:33:44.558Z,27.53
2023-05-21T20:36:12.548Z,28.37
2023-05-21T20:38:41.500Z,27.57
2023-05-21T20:41:08.636Z,28.17
2023-05-21T20:43:36.576Z,27.30
2023-05-21T20:46:04.885Z,29.37
2023-05-21T20:48:31.450Z,29.00
2023-05-21T20:50:58.102Z,28.60
2023-05-21T20:53:24.566Z,28.87
2023-05-21T20:55:53.917Z,28.90
2023-05-21T20:58:21.692Z,29.93
2023-05-21T21:00:49.660Z,29.43
2023-05-21T21:03:17.305Z,28.73
2023-05-21T21:05:43.832Z,30.07
2023-05-21T21:08:10.218Z,30.60
2023-05-21T21:10:37.558Z,30.40
2023-05-21T21:13:05.662Z,31.03
2023-05-21T21:15:32.586Z,32.00
2023-05-21T21:17:58.856Z,30.07
2023-05-21T21:20:25.143Z,30.73
2023-05-21T21:22:51.493Z,31.70
2023-05-21T21:25:17.930Z,30.23
2023-05-21T21:27:44.255Z,30.80
2023-05-21T21:30:11.190Z,30.70
2023-05-21T21:32:38.188Z,30.73
2023-05-21T21:35:05.175Z,30.93
2023-05-21T21:37:31.448Z,31.13
2023-05-21T21:39:57.681Z,31.73
2023-05-21T21:42:23.936Z,33.23
2023-05-21T21:44:50.232Z,33.80
2023-05-21T21:47:16.603Z,33.57
2023-05-21T21:49:43.713Z,34.40
2023-05-21T21:52:11.762Z,33.40
2023-05-21T21:54:37.989Z,34.17
2023-05-21T21:57:04.635Z,34.10
2023-05-21T21:59:31.024Z,33.37
2023-05-21T22:01:57.842Z,33.83
2023-05-21T22:04:24.245Z,34.53
2023-05-21T22:06:52.900Z,34.70
2023-05-21T22:09:21.632Z,34.13
2023-05-21T22:11:47.990Z,34.57
2023-05-21T22:14:14.779Z,33.00
2023-05-21T22:16:41.124Z,33.47
2023-05-21T22:19:07.741Z,32.30
2023-05-21T22:21:34.024Z,33.20
2023-05-21T22:24:01.015Z,32.60
2023-05-21T22:26:27.247Z,31.60
2023-05-21T22:28:53.593Z,31.93
2023-05-21T22:31:20.179Z,32.70
2023-05-21T22:33:46.478Z,32.83
2023-05-21T22:36:12.757Z,29.63
2023-05-21T22:38:38.957Z,30.93
2023-05-21T22:41:06.011Z,30.03
2023-05-21T22:43:33.202Z,29.83
2023-05-21T22:45:59.529Z,31.20
2023-05-21T22:48:25.895Z,30.83
2023-05-21T22:50:52.630Z,31.20
2023-05-21T22:53:18.887Z,31.57
2023-05-21T22:55:45.210Z,32.23
2023-05-21T22:58:12.300Z,31.03
2023-05-21T23:00:38.673Z,31.37
2023-05-21T23:03:05.266Z,32.77
2023-05-21T23:05:31.648Z,30.50
2023-05-21T23:07:57.904Z,31.37
2023-05-21T23:10:24.321Z,31.43
2023-05-21T23:12:50.546Z,27.87
2023-05-21T23:15:18.179Z,29.90
2023-05-21T23:17:45.095Z,29.47
2023-05-21T23:20:11.650Z,27.70
2023-05-21T23:22:37.816Z,28.40
2023-05-21T23:25:05.579Z,26.73
2023-05-21T23:27:31.992Z,25.87
2023-05-21T23:29:58.282Z,26.40
2023-05-21T23:32:25.142Z,26.77
2023-05-21T23:34:51.463Z,26.53
2023-05-21T23:37:18.414Z,26.37
2023-05-21T23:39:48.608Z,26.00
2023-05-21T23:42:15.147Z,25.60
2023-05-21T23:44:41.403Z,25.10
2023-05-21T23:47:07.564Z,24.67
2023-05-21T23:49:34.575Z,25.30
2023-05-21T23:52:01.047Z,24.60
2023-05-21T23:54:27.340Z,23.67
2023-05-21T23:56:53.606Z,23.90
2023-05-21T23:59:19.990Z,22.20
